Time;durP1;ratioP1;P1;durP2;ratioP2;P2;SDS_P1;SDS_P2;PMS_P1;PMS_P2;Temp;Humidity;BMP_temperature;BMP_pressure;BME280_temperature;BME280_humidity;BME280_pressure;Samples;Min_cycle;Max_cycle;Signal;HPM_P1;HPM_P2
2022/03/19 00:01:15;;;;;;;17.87;8.40;;;5.70;99.90;;;;;;5106762;28;20487;-78
2022/03/19 00:03:43;;;;;;;12.33;7.90;;;5.70;99.90;;;;;;5111694;28;20456;-78
2022/03/19 00:06:12;;;;;;;13.43;7.83;;;5.70;99.90;;;;;;5116594;28;20471;-78
2022/03/19 00:08:40;;;;;;;13.53;7.70;;;5.70;99.90;;;;;;5135612;28;20538;-78
2022/03/19 00:11:08;;;;;;;15.37;9.20;;;5.70;99.90;;;;;;5127682;28;20525;-78
2022/03/19 00:13:36;;;;;;;19.30;8.20;;;5.70;99.90;;;;;;5116234;28;20455;-78
2022/03/19 00:16:06;;;;;;;12.07;7.93;;;5.60;99.90;;;;;;5114073;28;21056;-78
2022/03/19 00:18:35;;;;;;;15.10;9.10;;;5.60;99.90;;;;;;5107192;28;20443;-77
2022/03/19 00:21:03;;;;;;;13.80;8.60;;;5.60;99.90;;;;;;5103027;28;20447;-78
2022/03/19 00:23:32;;;;;;;12.13;8.23;;;5.50;99.90;;;;;;5101743;28;20503;-78
2022/03/19 00:26:00;;;;;;;15.63;9.60;;;5.50;99.90;;;;;;5103181;28;20468;-78
2022/03/19 00:28:29;;;;;;;12.20;8.10;;;5.50;99.90;;;;;;5101762;28;20494;-78
2022/03/19 00:30:58;;;;;;;12.93;8.67;;;5.50;99.90;;;;;;5101360;28;20448;-78
2022/03/19 00:33:28;;;;;;;13.70;8.80;;;5.50;99.90;;;;;;5100638;28;20444;-78
2022/03/19 00:35:56;;;;;;;13.43;7.93;;;5.40;99.90;;;;;;5117181;28;20513;-78
2022/03/19 00:38:24;;;;;;;14.77;9.33;;;5.40;99.90;;;;;;5121198;28;20458;-78
2022/03/19 00:40:53;;;;;;;15.50;8.97;;;5.30;99.90;;;;;;5105037;28;20969;-78
2022/03/19 00:43:22;;;;;;;16.83;9.43;;;5.30;99.90;;;;;;5100426;28;20539;-79
2022/03/19 00:45:50;;;;;;;17.63;9.33;;;5.30;99.90;;;;;;5100070;28;20563;-78
2022/03/19 00:48:18;;;;;;;16.00;9.40;;;5.30;99.90;;;;;;5101640;28;20535;-78
2022/03/19 00:50:48;;;;;;;15.97;10.90;;;5.20;99.90;;;;;;5098278;28;20979;-78
2022/03/19 00:53:16;;;;;;;13.13;8.30;;;5.20;99.90;;;;;;5100110;28;20559;-78
2022/03/19 00:55:50;;;;;;;17.93;10.90;;;5.20;99.90;;;;;;5114857;28;20477;-77
2022/03/19 00:58:19;;;;;;;16.13;8.10;;;5.10;99.90;;;;;;5119522;28;20447;-78
2022/03/19 01:00:47;;;;;;;18.23;9.00;;;5.10;99.90;;;;;;5120561;28;20447;-78
2022/03/19 01:03:16;;;;;;;12.60;8.77;;;5.10;99.90;;;;;;5120589;28;20452;-78
2022/03/19 01:05:44;;;;;;;15.50;9.17;;;5.00;99.90;;;;;;5105305;28;20476;-78
2022/03/19 01:08:14;;;;;;;15.70;9.10;;;5.00;99.90;;;;;;5098002;28;20448;-78
2022/03/19 01:10:43;;;;;;;15.77;8.97;;;4.90;99.90;;;;;;5095946;28;20477;-78
2022/03/19 01:13:11;;;;;;;15.20;8.60;;;4.90;99.90;;;;;;5098881;28;20996;-78
2022/03/19 01:15:39;;;;;;;15.73;9.30;;;4.90;99.90;;;;;;5108155;28;20511;-78
2022/03/19 01:18:08;;;;;;;17.87;8.93;;;4.80;99.90;;;;;;5103129;28;20448;-77
2022/03/19 01:20:36;;;;;;;15.73;9.60;;;4.80;99.90;;;;;;5107870;28;20531;-78
2022/03/19 01:23:04;;;;;;;17.47;9.03;;;4.70;99.90;;;;;;5097186;28;20543;-78
2022/03/19 01:25:34;;;;;;;13.80;8.33;;;4.70;99.90;;;;;;5096159;28;20527;-77
2022/03/19 01:28:02;;;;;;;13.67;8.50;;;4.70;99.90;;;;;;5096100;28;20456;-78
2022/03/19 01:30:30;;;;;;;12.60;8.83;;;4.60;99.90;;;;;;5095811;28;20468;-78
2022/03/19 01:32:59;;;;;;;14.23;8.60;;;4.60;99.90;;;;;;5097735;28;20445;-78
2022/03/19 01:35:27;;;;;;;11.30;8.53;;;4.50;99.90;;;;;;5096918;28;20471;-78
2022/03/19 01:37:58;;;;;;;17.37;9.37;;;4.50;99.90;;;;;;5097196;28;20436;-77
2022/03/19 01:40:27;;;;;;;15.37;8.70;;;4.50;99.90;;;;;;5096066;28;20518;-78
2022/03/19 01:42:57;;;;;;;13.37;9.20;;;4.40;99.90;;;;;;5113367;28;20496;-77
2022/03/19 01:45:25;;;;;;;16.00;9.07;;;4.40;99.90;;;;;;5109028;28;20476;-78
2022/03/19 01:47:54;;;;;;;14.20;9.00;;;4.40;99.90;;;;;;5095931;28;20527;-78
2022/03/19 01:50:24;;;;;;;13.03;9.33;;;4.40;99.90;;;;;;5095734;28;20819;-78
2022/03/19 01:52:54;;;;;;;16.10;9.43;;;4.30;99.90;;;;;;5095356;28;20539;-78
2022/03/19 01:55:24;;;;;;;13.70;9.17;;;4.30;99.90;;;;;;5094658;28;20474;-78
2022/03/19 01:57:54;;;;;;;14.73;8.57;;;4.20;99.90;;;;;;5094864;28;20934;-78
2022/03/19 02:00:25;;;;;;;12.77;8.77;;;4.20;99.90;;;;;;5094227;28;20444;-78
2022/03/19 02:02:55;;;;;;;14.30;8.50;;;4.20;99.90;;;;;;5104879;28;20456;-78
2022/03/19 02:05:24;;;;;;;17.57;8.60;;;4.10;99.90;;;;;;5093923;28;20468;-78
2022/03/19 02:07:54;;;;;;;12.57;9.33;;;4.10;99.90;;;;;;5093738;28;20448;-78
2022/03/19 02:10:24;;;;;;;14.87;9.37;;;4.00;99.90;;;;;;5095024;28;20495;-78
2022/03/19 02:12:53;;;;;;;19.50;9.27;;;4.00;99.90;;;;;;5093515;28;20455;-78
2022/03/19 02:15:23;;;;;;;13.20;8.80;;;4.00;99.90;;;;;;5093479;28;20471;-78
2022/03/19 02:17:51;;;;;;;14.07;10.20;;;3.90;99.90;;;;;;5095421;28;20458;-78
2022/03/19 02:20:20;;;;;;;15.80;8.00;;;3.90;99.90;;;;;;5093461;28;21004;-78
2022/03/19 02:25:37;;;;;;;12.00;8.63;;;3.80;99.90;;;;;;5092177;28;20503;-77
2022/03/19 02:28:06;;;;;;;12.13;7.47;;;3.80;99.90;;;;;;5093116;28;20428;-77
2022/03/19 02:30:39;;;;;;;11.53;8.43;;;3.70;99.90;;;;;;5092810;28;20464;-78
2022/03/19 02:33:08;;;;;;;14.80;8.50;;;3.70;99.90;;;;;;5093046;28;20464;-78
2022/03/19 02:35:37;;;;;;;14.30;8.93;;;3.60;99.90;;;;;;5092827;28;20570;-78
2022/03/19 02:38:05;;;;;;;12.70;7.87;;;3.60;99.90;;;;;;5092988;28;20894;-78
2022/03/19 02:40:35;;;;;;;14.90;7.90;;;3.60;99.90;;;;;;5094147;28;20468;-78
2022/03/19 02:43:03;;;;;;;15.37;9.17;;;3.50;99.90;;;;;;5093967;28;20450;-78
2022/03/19 02:45:32;;;;;;;14.70;8.67;;;3.50;99.90;;;;;;5093209;28;20937;-78
2022/03/19 02:48:00;;;;;;;13.93;7.70;;;3.50;99.90;;;;;;5092968;28;20480;-77
2022/03/19 02:50:31;;;;;;;17.77;9.53;;;3.40;99.90;;;;;;5105259;28;20467;-78
2022/03/19 02:53:01;;;;;;;15.00;8.77;;;3.40;99.90;;;;;;5113218;28;20453;-77
2022/03/19 02:55:36;;;;;;;12.10;9.27;;;3.40;99.90;;;;;;5112906;28;20502;-78
2022/03/19 02:58:06;;;;;;;14.03;8.60;;;3.40;99.90;;;;;;5096388;28;20535;-78
2022/03/19 03:00:35;;;;;;;13.57;9.97;;;3.30;99.90;;;;;;5092395;28;20474;-78
2022/03/19 03:03:04;;;;;;;20.63;9.47;;;3.30;99.90;;;;;;5092587;28;20452;-78
2022/03/19 03:05:34;;;;;;;13.30;8.70;;;3.30;99.90;;;;;;5096175;28;20493;-77
2022/03/19 03:08:03;;;;;;;15.17;8.83;;;3.20;99.90;;;;;;5096787;28;20497;-78
2022/03/19 03:10:32;;;;;;;11.87;8.20;;;3.20;99.90;;;;;;5105314;28;20826;-78
2022/03/19 03:13:02;;;;;;;15.73;9.37;;;3.20;99.90;;;;;;5114281;28;20516;-78
2022/03/19 03:15:32;;;;;;;16.00;10.33;;;3.20;99.90;;;;;;5114456;28;20501;-78
2022/03/19 03:18:01;;;;;;;11.80;8.63;;;3.10;99.90;;;;;;5113751;28;20472;-77
2022/03/19 03:20:29;;;;;;;14.90;9.20;;;3.10;99.90;;;;;;5113908;28;20534;-77
2022/03/19 03:22:58;;;;;;;11.53;9.27;;;3.10;99.90;;;;;;5112373;28;20803;-78
2022/03/19 03:25:26;;;;;;;12.90;8.77;;;3.10;99.90;;;;;;5112324;28;20531;-78
2022/03/19 03:27:54;;;;;;;14.20;9.10;;;3.00;99.90;;;;;;5108841;28;20440;-78
2022/03/19 03:30:25;;;;;;;15.50;9.33;;;3.00;99.90;;;;;;5112383;28;20470;-78
2022/03/19 03:32:53;;;;;;;11.67;8.97;;;3.00;99.90;;;;;;5098415;28;20436;-77
2022/03/19 03:35:25;;;;;;;14.07;8.93;;;3.00;99.90;;;;;;5102326;28;20811;-77
2022/03/19 03:37:54;;;;;;;17.63;10.60;;;2.90;99.90;;;;;;5095534;28;20440;-78
2022/03/19 03:40:22;;;;;;;15.03;10.20;;;2.90;99.90;;;;;;5095341;28;20539;-77
2022/03/19 03:42:50;;;;;;;12.87;8.60;;;2.90;99.90;;;;;;5095072;28;20504;-77
2022/03/19 03:45:20;;;;;;;15.50;10.00;;;2.80;99.90;;;;;;5095516;28;20498;-78
2022/03/19 03:47:50;;;;;;;13.83;9.27;;;2.80;99.90;;;;;;5095327;28;20545;-77
2022/03/19 03:50:20;;;;;;;13.80;9.10;;;2.80;99.90;;;;;;5095271;28;20475;-77
2022/03/19 03:52:49;;;;;;;15.27;9.87;;;2.80;99.90;;;;;;5095290;28;20451;-77
2022/03/19 03:55:18;;;;;;;13.97;10.83;;;2.80;99.90;;;;;;5095074;28;20464;-77
2022/03/19 03:57:46;;;;;;;17.67;11.33;;;2.70;99.90;;;;;;5108949;28;20470;-78
2022/03/19 04:00:15;;;;;;;16.73;11.13;;;2.70;99.90;;;;;;5116692;28;20533;-77
2022/03/19 04:02:43;;;;;;;15.17;10.87;;;2.70;99.90;;;;;;5096489;28;20540;-78
2022/03/19 04:05:13;;;;;;;14.87;10.40;;;2.60;99.90;;;;;;5100155;28;20566;-78
2022/03/19 04:07:41;;;;;;;16.70;11.33;;;2.60;99.90;;;;;;5094802;28;20459;-77
2022/03/19 04:10:10;;;;;;;13.10;10.80;;;2.60;99.90;;;;;;5094563;28;20577;-78
2022/03/19 04:12:38;;;;;;;13.93;10.30;;;2.60;99.90;;;;;;5094774;28;20534;-78
2022/03/19 04:15:08;;;;;;;18.53;10.30;;;2.50;99.90;;;;;;5094815;28;20522;-78
2022/03/19 04:17:37;;;;;;;17.03;12.10;;;2.50;99.90;;;;;;5096875;28;20447;-77
2022/03/19 04:20:06;;;;;;;16.80;11.30;;;2.50;99.90;;;;;;5096443;28;20475;-78
2022/03/19 04:22:37;;;;;;;19.50;11.27;;;2.50;99.90;;;;;;5099297;28;20475;-77
2022/03/19 04:25:10;;;;;;;13.47;11.13;;;2.50;99.90;;;;;;5098748;28;20831;-78
2022/03/19 04:27:39;;;;;;;17.63;11.40;;;2.50;99.90;;;;;;5112988;28;20459;-78
2022/03/19 04:30:09;;;;;;;19.07;12.80;;;2.50;99.90;;;;;;5114912;28;20477;-78
2022/03/19 04:32:41;;;;;;;14.37;11.23;;;2.50;99.90;;;;;;5114857;28;20480;-77
2022/03/19 04:37:53;;;;;;;18.30;12.20;;;2.40;99.90;;;;;;5070312;28;20453;-77
2022/03/19 04:40:22;;;;;;;17.57;13.07;;;2.40;99.90;;;;;;5094766;28;20563;-78
2022/03/19 04:42:50;;;;;;;19.13;14.30;;;2.40;99.90;;;;;;5096143;28;20472;-77
2022/03/19 04:45:18;;;;;;;21.43;13.90;;;2.40;99.90;;;;;;5110603;28;20561;-77
2022/03/19 04:47:47;;;;;;;25.10;14.17;;;2.40;99.90;;;;;;5094126;28;20442;-77
2022/03/19 04:50:15;;;;;;;16.13;12.80;;;2.50;99.90;;;;;;5095102;28;20452;-77
2022/03/19 04:52:44;;;;;;;20.60;14.77;;;2.50;99.90;;;;;;5094218;28;20457;-78
2022/03/19 04:55:14;;;;;;;17.00;14.10;;;2.50;99.90;;;;;;5093995;28;20528;-77
2022/03/19 04:57:42;;;;;;;16.70;14.03;;;2.50;99.90;;;;;;5094035;28;20448;-77
2022/03/19 05:00:13;;;;;;;25.80;14.10;;;2.50;99.90;;;;;;5093978;28;20452;-78
2022/03/19 05:02:42;;;;;;;15.40;13.83;;;2.50;99.90;;;;;;5091778;28;20540;-77
2022/03/19 05:05:11;;;;;;;21.90;14.60;;;2.50;99.90;;;;;;5098632;28;20482;-77
2022/03/19 05:07:39;;;;;;;20.67;15.03;;;2.50;99.90;;;;;;5115652;28;20496;-77
2022/03/19 05:12:57;;;;;;;17.10;14.10;;;2.50;99.90;;;;;;5114203;28;20489;-78
2022/03/19 05:15:27;;;;;;;18.93;15.17;;;2.40;99.90;;;;;;5103024;28;20468;-78
2022/03/19 05:17:56;;;;;;;20.53;14.90;;;2.40;99.90;;;;;;5095045;28;20443;-78
2022/03/19 05:20:24;;;;;;;18.63;15.10;;;2.40;99.90;;;;;;5093522;28;20495;-77
2022/03/19 05:22:52;;;;;;;17.47;13.53;;;2.40;99.90;;;;;;5104032;28;20474;-77
2022/03/19 05:25:21;;;;;;;24.73;17.93;;;2.40;99.90;;;;;;5099482;28;20465;-77
2022/03/19 05:27:50;;;;;;;17.80;14.67;;;2.40;99.90;;;;;;5113869;28;20522;-78
2022/03/19 05:30:22;;;;;;;17.93;13.07;;;2.40;99.90;;;;;;5113641;28;20438;-77
2022/03/19 05:32:51;;;;;;;21.73;13.90;;;2.40;99.90;;;;;;5113553;28;20564;-77
2022/03/19 05:35:21;;;;;;;21.83;14.60;;;2.40;99.90;;;;;;5113547;28;20467;-78
2022/03/19 05:37:50;;;;;;;22.60;14.83;;;2.40;99.90;;;;;;5115304;28;20502;-78
2022/03/19 05:40:19;;;;;;;23.70;13.63;;;2.40;99.90;;;;;;5113791;28;20443;-77
2022/03/19 05:42:47;;;;;;;23.27;15.10;;;2.40;99.90;;;;;;5113327;28;20446;-78
2022/03/19 05:45:15;;;;;;;20.90;13.37;;;2.40;99.90;;;;;;5111264;28;20560;-77
2022/03/19 05:47:45;;;;;;;21.40;13.50;;;2.40;99.90;;;;;;5106081;28;20547;-77
2022/03/19 05:50:14;;;;;;;15.87;12.30;;;2.40;99.90;;;;;;5113318;28;20455;-77
2022/03/19 05:52:45;;;;;;;19.13;13.43;;;2.40;99.90;;;;;;5107386;28;20895;-77
2022/03/19 05:55:14;;;;;;;17.37;13.50;;;2.40;99.90;;;;;;5092496;28;20473;-77
2022/03/19 05:57:42;;;;;;;22.50;13.17;;;2.40;99.90;;;;;;5095302;28;21036;-78
2022/03/19 06:00:12;;;;;;;18.67;12.73;;;2.40;99.90;;;;;;5096348;28;20836;-78
2022/03/19 06:02:40;;;;;;;18.30;11.70;;;2.50;99.90;;;;;;5096793;28;20424;-78
2022/03/19 06:05:11;;;;;;;19.70;12.80;;;2.50;99.90;;;;;;5096851;28;20453;-78
2022/03/19 06:07:39;;;;;;;20.10;12.07;;;2.50;99.90;;;;;;5091973;28;20552;-78
2022/03/19 06:10:09;;;;;;;22.63;13.10;;;2.50;99.90;;;;;;5085935;28;20442;-78
2022/03/19 06:12:37;;;;;;;20.40;11.97;;;2.50;99.90;;;;;;5095437;28;20895;-78
2022/03/19 06:15:07;;;;;;;21.90;11.90;;;2.50;99.90;;;;;;5095341;28;20460;-78
2022/03/19 06:17:35;;;;;;;20.97;12.33;;;2.60;99.90;;;;;;5117041;28;20437;-78
2022/03/19 06:20:04;;;;;;;16.50;12.10;;;2.60;99.90;;;;;;5115015;28;20464;-78
2022/03/19 06:22:34;;;;;;;16.70;12.63;;;2.50;99.90;;;;;;5101482;28;20494;-78
2022/03/19 06:25:02;;;;;;;16.50;11.70;;;2.60;99.90;;;;;;5095533;28;20486;-78
2022/03/19 06:27:31;;;;;;;20.60;14.27;;;2.60;99.90;;;;;;5091636;28;20990;-77
2022/03/19 06:29:59;;;;;;;21.80;13.93;;;2.70;99.90;;;;;;5090965;28;20451;-77
2022/03/19 06:32:27;;;;;;;20.70;12.93;;;2.80;99.90;;;;;;5088427;28;20462;-78
2022/03/19 06:34:57;;;;;;;17.37;13.60;;;2.90;99.90;;;;;;5102845;28;20468;-78
2022/03/19 06:37:27;;;;;;;19.57;14.33;;;3.10;99.90;;;;;;5093150;28;20956;-77
2022/03/19 06:39:59;;;;;;;15.80;13.60;;;3.20;99.90;;;;;;5111132;28;20986;-78
2022/03/19 06:42:27;;;;;;;16.47;13.57;;;3.40;99.90;;;;;;5099309;28;20485;-78
2022/03/19 06:44:55;;;;;;;16.70;13.67;;;3.60;99.90;;;;;;5095434;28;20566;-77
2022/03/19 06:47:24;;;;;;;16.77;12.10;;;3.80;99.90;;;;;;5095897;28;20454;-77
2022/03/19 06:49:54;;;;;;;19.50;12.80;;;3.90;99.90;;;;;;5102276;28;20447;-77
2022/03/19 06:52:24;;;;;;;18.57;12.53;;;4.10;99.90;;;;;;5114589;28;20958;-77
2022/03/19 06:54:53;;;;;;;17.17;11.03;;;4.20;99.90;;;;;;5125050;28;20470;-78
2022/03/19 06:57:23;;;;;;;17.43;11.33;;;4.20;99.90;;;;;;5118130;28;20505;-78
2022/03/19 06:59:54;;;;;;;17.20;12.17;;;4.30;99.90;;;;;;5124352;28;20462;-78
2022/03/19 07:02:22;;;;;;;19.80;11.43;;;4.30;99.90;;;;;;5124627;28;20435;-78
2022/03/19 07:04:51;;;;;;;15.93;11.90;;;4.40;99.90;;;;;;5116907;28;21058;-78
2022/03/19 07:07:19;;;;;;;20.23;12.03;;;4.40;99.90;;;;;;5124613;28;20478;-77
2022/03/19 07:09:48;;;;;;;18.30;13.07;;;4.50;99.90;;;;;;5129508;28;20439;-78
2022/03/19 07:12:17;;;;;;;14.70;11.60;;;4.50;99.90;;;;;;5129864;28;20567;-78
2022/03/19 07:14:46;;;;;;;20.10;11.70;;;4.60;99.90;;;;;;5128905;28;20451;-77
2022/03/19 07:17:15;;;;;;;16.53;10.73;;;4.70;99.90;;;;;;5131657;28;20451;-77
2022/03/19 07:19:44;;;;;;;14.97;11.23;;;4.70;99.90;;;;;;5118472;28;20539;-77
2022/03/19 07:22:12;;;;;;;18.57;11.37;;;4.70;99.90;;;;;;5109767;28;20479;-77
2022/03/19 07:24:43;;;;;;;18.80;10.87;;;4.80;99.90;;;;;;5119962;28;20539;-78
2022/03/19 07:27:11;;;;;;;14.03;10.43;;;4.80;99.90;;;;;;5120861;28;20795;-79
2022/03/19 07:29:40;;;;;;;15.33;10.10;;;4.90;99.90;;;;;;5123406;28;20518;-78
2022/03/19 07:32:10;;;;;;;16.60;10.40;;;4.80;99.90;;;;;;5123778;28;20467;-78
2022/03/19 07:34:40;;;;;;;18.40;10.00;;;4.90;99.90;;;;;;5123362;28;20430;-78
2022/03/19 07:37:08;;;;;;;17.27;11.63;;;5.00;99.90;;;;;;5103402;28;20524;-78
2022/03/19 07:39:36;;;;;;;16.60;10.63;;;5.00;99.90;;;;;;5099648;28;20513;-78
2022/03/19 07:42:04;;;;;;;16.77;11.13;;;5.10;99.90;;;;;;5104556;28;20443;-77
2022/03/19 07:44:32;;;;;;;16.00;10.80;;;5.10;99.90;;;;;;5118106;28;20446;-77
2022/03/19 07:47:00;;;;;;;16.20;11.47;;;5.20;99.90;;;;;;5112639;28;20566;-77
2022/03/19 07:49:30;;;;;;;19.70;10.83;;;5.30;99.90;;;;;;5097544;28;20455;-78
2022/03/19 07:52:05;;;;;;;18.70;10.80;;;5.30;99.90;;;;;;5097142;28;20536;-77
2022/03/19 07:54:33;;;;;;;16.47;11.27;;;5.40;99.90;;;;;;5096838;28;20440;-77
2022/03/19 07:57:02;;;;;;;17.50;10.20;;;5.50;99.90;;;;;;5103379;28;20491;-77
2022/03/19 07:59:30;;;;;;;16.60;10.90;;;5.50;99.90;;;;;;5100201;28;20501;-77
2022/03/19 08:02:00;;;;;;;16.23;10.03;;;5.60;99.90;;;;;;5114553;28;20794;-77
2022/03/19 08:04:30;;;;;;;15.00;9.60;;;5.80;99.90;;;;;;5121666;28;20447;-78
2022/03/19 08:06:58;;;;;;;17.30;10.17;;;5.90;99.90;;;;;;5105234;28;20459;-78
2022/03/19 08:09:28;;;;;;;19.37;9.37;;;6.10;99.90;;;;;;5098953;28;20481;-78
2022/03/19 08:11:57;;;;;;;13.50;9.07;;;6.30;99.90;;;;;;5100612;28;20445;-78
2022/03/19 08:14:26;;;;;;;12.87;9.23;;;6.50;99.90;;;;;;5101481;28;20468;-79
2022/03/19 08:16:55;;;;;;;16.07;8.57;;;6.70;99.90;;;;;;5094843;28;20460;-77
2022/03/19 08:19:25;;;;;;;12.40;8.37;;;6.90;99.90;;;;;;5095603;28;20445;-77
2022/03/19 08:21:55;;;;;;;20.43;8.67;;;7.10;99.90;;;;;;5075247;28;20923;-77
2022/03/19 08:24:25;;;;;;;11.37;7.40;;;7.20;99.90;;;;;;5078438;28;20544;-78
2022/03/19 08:26:56;;;;;;;11.10;7.43;;;7.40;99.90;;;;;;5095863;28;20484;-78
2022/03/19 08:29:25;;;;;;;13.47;8.40;;;7.60;99.90;;;;;;5120831;28;20546;-77
2022/03/19 08:31:54;;;;;;;10.70;7.07;;;7.60;99.90;;;;;;5098975;28;20889;-78
2022/03/19 08:34:23;;;;;;;10.10;7.03;;;7.80;99.90;;;;;;5099919;28;20827;-78
2022/03/19 08:36:52;;;;;;;12.47;7.53;;;7.90;99.90;;;;;;5100292;28;20551;-78
2022/03/19 08:42:09;;;;;;;13.50;7.30;;;8.20;99.90;;;;;;5112279;28;20440;-78
2022/03/19 08:44:38;;;;;;;11.43;7.03;;;8.30;99.90;;;;;;5101745;28;20459;-78
2022/03/19 08:47:07;;;;;;;11.93;9.30;;;8.40;99.90;;;;;;5101887;28;20475;-78
2022/03/19 08:49:35;;;;;;;13.57;7.33;;;8.40;99.90;;;;;;5105459;28;20928;-78
2022/03/19 08:52:04;;;;;;;11.53;6.50;;;8.50;99.90;;;;;;5116519;28;20447;-77
2022/03/19 08:54:47;;;;;;;12.57;6.40;;;8.60;99.90;;;;;;5116879;28;20546;-77
2022/03/19 08:57:16;;;;;;;10.87;5.97;;;8.70;99.90;;;;;;5115982;28;20443;-78
2022/03/19 08:59:44;;;;;;;11.80;6.50;;;8.80;99.90;;;;;;5123710;28;20428;-78
2022/03/19 09:02:32;;;;;;;12.77;7.23;;;8.90;99.90;;;;;;5123430;28;20442;-79
2022/03/19 09:05:00;;;;;;;10.03;6.50;;;9.00;99.90;;;;;;5115803;28;20874;-79
2022/03/19 09:07:29;;;;;;;11.93;6.37;;;9.00;99.90;;;;;;5117763;28;20986;-77
2022/03/19 09:09:58;;;;;;;9.87;6.57;;;9.10;99.90;;;;;;5115743;28;20513;-78
2022/03/19 09:12:37;;;;;;;11.17;6.60;;;9.10;99.90;;;;;;5099814;28;20948;-77
2022/03/19 09:15:07;;;;;;;10.53;6.67;;;9.20;99.90;;;;;;5116476;28;20467;-77
2022/03/19 09:17:35;;;;;;;10.77;6.73;;;9.20;99.90;;;;;;5117863;28;20642;-77
2022/03/19 09:20:04;;;;;;;10.80;6.07;;;9.20;99.90;;;;;;5116010;28;20440;-77
2022/03/19 09:22:32;;;;;;;8.57;5.60;;;9.20;99.90;;;;;;5116762;28;20520;-78
2022/03/19 09:25:02;;;;;;;8.77;5.90;;;9.20;99.90;;;;;;5114285;28;20528;-78
2022/03/19 09:27:31;;;;;;;6.93;5.13;;;9.20;99.90;;;;;;5105546;28;20545;-77
2022/03/19 09:29:59;;;;;;;8.20;5.53;;;9.10;99.90;;;;;;5120272;28;20452;-80
2022/03/19 09:32:28;;;;;;;10.37;5.33;;;9.20;99.90;;;;;;5121959;28;20443;-80
2022/03/19 09:34:58;;;;;;;10.67;5.73;;;9.20;99.90;;;;;;5122689;28;20487;-80
2022/03/19 09:37:27;;;;;;;8.17;5.10;;;9.30;99.90;;;;;;5122512;28;20447;-80
2022/03/19 09:39:56;;;;;;;11.07;5.73;;;9.40;99.90;;;;;;5123674;28;20531;-79
2022/03/19 09:42:27;;;;;;;7.07;3.63;;;9.40;99.90;;;;;;5123719;28;20467;-82
2022/03/19 09:44:56;;;;;;;10.57;4.03;;;9.50;99.90;;;;;;5116787;28;20556;-81
2022/03/19 09:47:26;;;;;;;7.50;3.53;;;9.60;99.90;;;;;;5105630;28;20797;-80
2022/03/19 09:49:56;;;;;;;6.37;3.97;;;9.60;99.90;;;;;;5110332;28;20470;-80
2022/03/19 09:52:29;;;;;;;8.23;3.77;;;9.60;99.90;;;;;;5124664;28;20475;-79
2022/03/19 09:54:59;;;;;;;6.27;3.40;;;9.60;99.90;;;;;;5125715;28;20471;-80
2022/03/19 09:57:29;;;;;;;6.80;3.80;;;9.60;99.90;;;;;;5115554;28;20489;-80
2022/03/19 09:59:58;;;;;;;8.70;3.43;;;9.60;99.90;;;;;;5105085;28;20505;-80
2022/03/19 10:02:26;;;;;;;8.40;3.70;;;9.60;99.90;;;;;;5105502;28;20472;-80
2022/03/19 10:04:57;;;;;;;6.73;3.27;;;9.70;99.90;;;;;;5103409;28;20513;-81
2022/03/19 10:10:12;;;;;;;6.63;3.80;;;9.70;99.90;;;;;;5105256;28;20444;-80
2022/03/19 10:12:46;;;;;;;7.10;4.00;;;9.70;99.90;;;;;;5125499;28;20504;-80
2022/03/19 10:15:14;;;;;;;6.00;3.30;;;9.70;99.90;;;;;;5119502;28;20514;-80
2022/03/19 10:17:47;;;;;;;8.20;3.20;;;9.70;99.90;;;;;;5125635;28;20478;-80
2022/03/19 10:20:15;;;;;;;6.97;3.13;;;9.80;99.90;;;;;;5126389;28;20463;-80
2022/03/19 10:22:45;;;;;;;6.30;2.90;;;9.80;99.90;;;;;;5125721;28;20805;-80
2022/03/19 10:25:17;;;;;;;7.07;2.40;;;9.90;99.90;;;;;;5126698;28;20508;-80
2022/03/19 10:27:48;;;;;;;5.17;2.70;;;9.90;99.90;;;;;;5125196;28;20435;-81
2022/03/19 10:30:19;;;;;;;7.37;3.40;;;10.00;99.90;;;;;;5125261;28;20458;-80
2022/03/19 10:32:51;;;;;;;5.20;2.30;;;10.00;99.90;;;;;;5125483;28;20435;-80
2022/03/19 10:35:28;;;;;;;8.30;3.43;;;10.00;99.90;;;;;;5118356;28;20479;-80
2022/03/19 10:37:58;;;;;;;5.97;3.33;;;10.10;99.90;;;;;;5102691;28;20840;-80
2022/03/19 10:40:42;;;;;;;5.60;2.10;;;10.10;99.90;;;;;;5110098;28;20450;-82
2022/03/19 10:43:12;;;;;;;4.50;2.57;;;10.10;99.90;;;;;;5128033;28;20467;-80
2022/03/19 10:45:45;;;;;;;4.37;2.20;;;10.10;99.90;;;;;;5131283;28;20483;-80
2022/03/19 10:48:14;;;;;;;7.67;2.20;;;10.20;99.90;;;;;;5131667;28;20439;-81
2022/03/19 10:50:42;;;;;;;6.97;2.20;;;10.20;99.90;;;;;;5130362;28;20446;-80
2022/03/19 10:53:11;;;;;;;5.33;2.17;;;10.30;99.90;;;;;;5131498;28;20885;-82
2022/03/19 10:55:39;;;;;;;4.70;2.70;;;10.30;99.90;;;;;;5130064;28;20475;-81
2022/03/19 10:58:08;;;;;;;4.43;2.00;;;10.30;99.90;;;;;;5129830;28;20799;-80
2022/03/19 11:01:01;;;;;;;5.97;2.20;;;10.40;99.90;;;;;;5116575;28;20459;-80
2022/03/19 11:03:32;;;;;;;8.83;2.30;;;10.40;99.90;;;;;;5129895;28;20432;-81
2022/03/19 11:06:05;;;;;;;3.50;1.83;;;10.50;99.90;;;;;;5130248;28;20514;-81
2022/03/19 11:08:37;;;;;;;8.63;2.90;;;10.50;99.90;;;;;;5112820;28;20477;-80
2022/03/19 11:11:11;;;;;;;4.40;2.40;;;10.50;99.90;;;;;;5109659;28;20444;-80
2022/03/19 11:13:43;;;;;;;4.55;2.35;;;10.60;99.90;;;;;;5110071;28;20460;-81
2022/03/19 11:16:14;;;;;;;6.60;2.30;;;10.60;99.90;;;;;;5109948;28;20464;-81
2022/03/19 11:18:43;;;;;;;5.80;2.30;;;10.60;99.90;;;;;;5110209;28;20820;-80
2022/03/19 11:21:15;;;;;;;7.37;2.30;;;10.60;99.90;;;;;;5112795;28;20480;-80
2022/03/19 11:23:54;;;;;;;4.90;1.87;;;10.70;99.90;;;;;;5116539;28;20462;-80
2022/03/19 11:26:24;;;;;;;4.50;2.20;;;10.70;99.90;;;;;;5109004;28;20476;-80
2022/03/19 11:28:53;;;;;;;2.73;1.60;;;10.70;99.90;;;;;;5108020;28;20448;-81
2022/03/19 11:31:29;;;;;;;3.63;1.63;;;10.80;99.90;;;;;;5110433;28;20504;-80
2022/03/19 11:34:01;;;;;;;4.70;2.10;;;10.80;99.90;;;;;;5110300;28;20420;-80
2022/03/19 11:36:29;;;;;;;5.73;2.90;;;10.90;99.90;;;;;;5109032;28;20464;-80
2022/03/19 11:39:00;;;;;;;3.80;2.37;;;10.90;99.90;;;;;;5109959;28;20452;-80
2022/03/19 11:41:31;;;;;;;5.70;1.90;;;10.90;99.90;;;;;;5111423;28;20447;-80
2022/03/19 11:44:20;;;;;;;4.93;2.40;;;10.90;99.90;;;;;;5129573;28;20481;-81
2022/03/19 11:47:09;;;;;;;5.40;2.40;;;10.90;99.90;;;;;;5129622;28;20552;-80
2022/03/19 11:49:49;;;;;;;3.93;2.40;;;11.00;99.90;;;;;;5124000;28;20452;-81
2022/03/19 11:52:19;;;;;;;4.20;2.00;;;11.00;99.90;;;;;;5107233;28;20446;-81
2022/03/19 11:55:06;;;;;;;3.30;1.73;;;11.00;99.70;;;;;;5108782;28;20837;-80
2022/03/19 11:57:58;;;;;;;4.03;1.93;;;11.10;99.30;;;;;;5129039;27;20419;-81
2022/03/19 12:00:29;;;;;;;4.70;1.47;;;11.10;99.30;;;;;;5124519;27;20481;-80
2022/03/19 12:03:07;;;;;;;3.60;2.00;;;11.10;99.10;;;;;;5106354;28;20448;-80
2022/03/19 12:05:37;;;;;;;3.57;1.57;;;11.10;98.60;;;;;;5108670;28;20463;-80
2022/03/19 12:08:08;;;;;;;2.87;1.80;;;11.10;98.70;;;;;;5107222;28;20516;-81
2022/03/19 12:10:54;;;;;;;3.57;1.70;;;11.10;98.50;;;;;;5107927;28;20440;-82
2022/03/19 12:13:42;;;;;;;4.80;1.70;;;11.20;98.50;;;;;;5127778;28;20447;-82
2022/03/19 12:16:12;;;;;;;4.40;2.00;;;11.30;98.60;;;;;;5128435;28;20506;-82
2022/03/19 12:18:47;;;;;;;3.83;1.77;;;11.30;98.70;;;;;;5126914;28;20547;-82
2022/03/19 12:21:21;;;;;;;3.27;2.10;;;11.30;98.60;;;;;;5124824;28;20454;-82
2022/03/19 12:24:01;;;;;;;8.80;3.20;;;11.30;98.70;;;;;;5127989;28;20462;-82
2022/03/19 12:26:37;;;;;;;6.10;2.53;;;11.40;98.70;;;;;;5126121;28;20463;-81
2022/03/19 12:29:08;;;;;;;9.67;2.73;;;11.40;98.70;;;;;;5105686;28;20809;-81
2022/03/19 12:31:37;;;;;;;4.63;2.20;;;11.40;98.80;;;;;;5106696;28;20973;-81
2022/03/19 12:34:07;;;;;;;6.60;2.90;;;11.50;99.00;;;;;;5107971;28;20452;-82
2022/03/19 12:36:36;;;;;;;5.47;3.13;;;11.50;99.10;;;;;;5117418;28;20535;-82
2022/03/19 12:39:05;;;;;;;7.83;3.53;;;11.50;99.10;;;;;;5127088;28;20447;-81
2022/03/19 12:41:34;;;;;;;5.33;2.27;;;11.50;99.00;;;;;;5122953;28;20451;-81
2022/03/19 12:44:25;;;;;;;6.37;2.67;;;11.60;99.10;;;;;;5127011;28;20800;-82
2022/03/19 12:46:57;;;;;;;4.73;3.73;;;11.60;98.80;;;;;;5111098;28;20476;-81
2022/03/19 12:49:28;;;;;;;4.43;2.40;;;11.60;99.00;;;;;;5109318;28;20486;-81
2022/03/19 12:51:57;;;;;;;6.00;2.30;;;11.70;99.00;;;;;;5127712;28;20534;-82
2022/03/19 12:54:28;;;;;;;4.80;2.10;;;11.70;98.50;;;;;;5126679;28;20446;-81
2022/03/19 12:56:59;;;;;;;3.60;2.00;;;11.70;98.50;;;;;;5127124;28;20459;-82
2022/03/19 12:59:29;;;;;;;4.13;2.07;;;11.70;97.90;;;;;;5128354;28;20941;-82
2022/03/19 13:01:58;;;;;;;5.33;2.20;;;11.70;97.90;;;;;;5129011;28;20443;-81
2022/03/19 13:04:29;;;;;;;7.37;2.40;;;11.70;97.70;;;;;;5125583;28;20499;-81
2022/03/19 13:07:00;;;;;;;3.20;2.20;;;11.70;97.70;;;;;;5105269;28;20544;-81
2022/03/19 13:09:31;;;;;;;4.37;2.10;;;11.70;97.30;;;;;;5104925;28;20467;-81
2022/03/19 13:12:00;;;;;;;6.10;2.30;;;11.80;97.20;;;;;;5105458;28;20924;-82